sensor_id;sensor_type;location;lat;lon;timestamp;P1;durP1;ratioP1;P2;durP2;ratioP2
45784;SDS011;31489;51.404;5.474;2023-04-01T00:02:18;6.57;;;1.38;;
45784;SDS011;31489;51.404;5.474;2023-04-01T00:04:44;4.38;;;1.52;;
45784;SDS011;31489;51.404;5.474;2023-04-01T00:07:10;3.40;;;1.45;;
45784;SDS011;31489;51.404;5.474;2023-04-01T00:09:36;3.95;;;1.20;;
45784;SDS011;31489;51.404;5.474;2023-04-01T00:12:02;5.82;;;1.30;;
45784;SDS011;31489;51.404;5.474;2023-04-01T00:14:28;4.10;;;1.40;;
45784;SDS011;31489;51.404;5.474;2023-04-01T00:16:54;3.47;;;1.35;;
45784;SDS011;31489;51.404;5.474;2023-04-01T00:19:20;5.10;;;1.65;;
45784;SDS011;31489;51.404;5.474;2023-04-01T00:21:46;4.90;;;1.60;;
45784;SDS011;31489;51.404;5.474;2023-04-01T00:24:13;3.60;;;1.17;;
45784;SDS011;31489;51.404;5.474;2023-04-01T00:26:39;4.95;;;1.45;;
45784;SDS011;31489;51.404;5.474;2023-04-01T00:29:07;3.95;;;1.38;;
45784;SDS011;31489;51.404;5.474;2023-04-01T00:31:33;3.00;;;1.20;;
45784;SDS011;31489;51.404;5.474;2023-04-01T00:33:58;4.60;;;1.33;;
45784;SDS011;31489;51.404;5.474;2023-04-01T00:36:24;5.20;;;1.25;;
45784;SDS011;31489;51.404;5.474;2023-04-01T00:38:50;3.17;;;1.17;;
45784;SDS011;31489;51.404;5.474;2023-04-01T00:41:16;4.38;;;1.40;;
45784;SDS011;31489;51.404;5.474;2023-04-01T00:43:44;4.07;;;1.20;;
45784;SDS011;31489;51.404;5.474;2023-04-01T00:46:11;2.85;;;1.40;;
45784;SDS011;31489;51.404;5.474;2023-04-01T00:48:45;3.53;;;1.20;;
45784;SDS011;31489;51.404;5.474;2023-04-01T00:51:20;3.25;;;1.08;;
45784;SDS011;31489;51.404;5.474;2023-04-01T00:53:51;2.47;;;1.10;;
45784;SDS011;31489;51.404;5.474;2023-04-01T00:56:19;1.30;;;1.02;;
45784;SDS011;31489;51.404;5.474;2023-04-01T00:58:54;2.45;;;1.05;;
45784;SDS011;31489;51.404;5.474;2023-04-01T01:01:25;2.07;;;0.97;;
45784;SDS011;31489;51.404;5.474;2023-04-01T01:03:52;2.25;;;0.90;;
45784;SDS011;31489;51.404;5.474;2023-04-01T01:11:54;3.50;;;1.45;;
45784;SDS011;31489;51.404;5.474;2023-04-01T01:27:13;1.73;;;0.80;;
45784;SDS011;31489;51.404;5.474;2023-04-01T01:31:59;0.80;;;0.80;;
45784;SDS011;31489;51.404;5.474;2023-04-01T01:37:15;1.23;;;0.70;;
45784;SDS011;31489;51.404;5.474;2023-04-01T01:39:44;1.48;;;0.80;;
45784;SDS011;31489;51.404;5.474;2023-04-01T01:42:16;1.38;;;0.90;;
45784;SDS011;31489;51.404;5.474;2023-04-01T01:44:44;1.52;;;0.70;;
45784;SDS011;31489;51.404;5.474;2023-04-01T01:47:12;0.63;;;0.63;;
45784;SDS011;31489;51.404;5.474;2023-04-01T01:49:39;1.02;;;0.90;;
45784;SDS011;31489;51.404;5.474;2023-04-01T01:52:08;2.05;;;0.70;;
45784;SDS011;31489;51.404;5.474;2023-04-01T01:54:34;0.95;;;0.70;;
45784;SDS011;31489;51.404;5.474;2023-04-01T01:57:07;1.63;;;0.80;;
45784;SDS011;31489;51.404;5.474;2023-04-01T01:59:35;1.60;;;0.80;;
45784;SDS011;31489;51.404;5.474;2023-04-01T02:02:03;1.17;;;1.17;;
45784;SDS011;31489;51.404;5.474;2023-04-01T02:04:34;0.93;;;0.90;;
45784;SDS011;31489;51.404;5.474;2023-04-01T02:07:04;0.90;;;0.90;;
45784;SDS011;31489;51.404;5.474;2023-04-01T02:09:37;1.40;;;1.10;;
45784;SDS011;31489;51.404;5.474;2023-04-01T02:12:07;1.25;;;1.10;;
45784;SDS011;31489;51.404;5.474;2023-04-01T02:17:08;1.58;;;1.23;;
45784;SDS011;31489;51.404;5.474;2023-04-01T02:20:23;2.42;;;1.45;;
45784;SDS011;31489;51.404;5.474;2023-04-01T02:22:43;1.60;;;1.40;;
45784;SDS011;31489;51.404;5.474;2023-04-01T02:25:13;1.35;;;1.25;;
45784;SDS011;31489;51.404;5.474;2023-04-01T02:27:43;4.15;;;1.60;;
45784;SDS011;31489;51.404;5.474;2023-04-01T02:30:10;1.55;;;1.45;;
45784;SDS011;31489;51.404;5.474;2023-04-01T02:32:38;1.70;;;1.52;;
45784;SDS011;31489;51.404;5.474;2023-04-01T02:35:05;2.13;;;1.92;;
45784;SDS011;31489;51.404;5.474;2023-04-01T02:37:33;1.65;;;1.55;;
45784;SDS011;31489;51.404;5.474;2023-04-01T02:40:03;2.10;;;1.65;;
45784;SDS011;31489;51.404;5.474;2023-04-01T02:42:31;2.58;;;1.55;;
45784;SDS011;31489;51.404;5.474;2023-04-01T02:44:57;3.28;;;1.80;;
45784;SDS011;31489;51.404;5.474;2023-04-01T02:47:22;1.80;;;1.67;;
45784;SDS011;31489;51.404;5.474;2023-04-01T02:49:48;2.45;;;2.25;;
45784;SDS011;31489;51.404;5.474;2023-04-01T02:52:14;2.42;;;2.17;;
45784;SDS011;31489;51.404;5.474;2023-04-01T02:54:39;3.33;;;2.55;;
45784;SDS011;31489;51.404;5.474;2023-04-01T02:57:05;2.97;;;2.67;;
45784;SDS011;31489;51.404;5.474;2023-04-01T02:59:31;3.22;;;2.78;;
45784;SDS011;31489;51.404;5.474;2023-04-01T03:01:57;4.38;;;3.15;;
45784;SDS011;31489;51.404;5.474;2023-04-01T03:04:23;3.53;;;2.85;;
45784;SDS011;31489;51.404;5.474;2023-04-01T03:06:48;4.20;;;3.45;;
45784;SDS011;31489;51.404;5.474;2023-04-01T03:09:14;4.63;;;3.60;;
45784;SDS011;31489;51.404;5.474;2023-04-01T03:11:41;5.18;;;3.97;;
45784;SDS011;31489;51.404;5.474;2023-04-01T03:14:06;3.85;;;3.55;;
45784;SDS011;31489;51.404;5.474;2023-04-01T03:16:32;5.70;;;3.17;;
45784;SDS011;31489;51.404;5.474;2023-04-01T03:18:58;3.72;;;3.28;;
45784;SDS011;31489;51.404;5.474;2023-04-01T03:21:25;4.18;;;3.25;;
45784;SDS011;31489;51.404;5.474;2023-04-01T03:23:51;3.13;;;2.83;;
45784;SDS011;31489;51.404;5.474;2023-04-01T03:26:17;4.75;;;3.63;;
45784;SDS011;31489;51.404;5.474;2023-04-01T03:28:43;4.13;;;3.38;;
45784;SDS011;31489;51.404;5.474;2023-04-01T03:31:08;3.35;;;3.05;;
45784;SDS011;31489;51.404;5.474;2023-04-01T03:33:34;2.92;;;2.55;;
45784;SDS011;31489;51.404;5.474;2023-04-01T03:36:00;3.10;;;2.90;;
45784;SDS011;31489;51.404;5.474;2023-04-01T03:38:26;3.15;;;2.85;;
45784;SDS011;31489;51.404;5.474;2023-04-01T03:40:51;4.72;;;2.90;;
45784;SDS011;31489;51.404;5.474;2023-04-01T03:43:17;2.80;;;2.60;;
45784;SDS011;31489;51.404;5.474;2023-04-01T03:45:43;3.28;;;2.33;;
45784;SDS011;31489;51.404;5.474;2023-04-01T03:48:10;3.38;;;2.40;;
45784;SDS011;31489;51.404;5.474;2023-04-01T03:50:39;2.60;;;2.40;;
45784;SDS011;31489;51.404;5.474;2023-04-01T03:53:04;2.70;;;2.50;;
45784;SDS011;31489;51.404;5.474;2023-04-01T03:55:30;2.60;;;2.25;;
45784;SDS011;31489;51.404;5.474;2023-04-01T03:57:56;3.22;;;2.35;;
45784;SDS011;31489;51.404;5.474;2023-04-01T04:00:21;2.53;;;2.33;;
45784;SDS011;31489;51.404;5.474;2023-04-01T04:02:47;2.50;;;2.30;;
45784;SDS011;31489;51.404;5.474;2023-04-01T04:05:12;3.28;;;2.80;;
45784;SDS011;31489;51.404;5.474;2023-04-01T04:07:39;3.50;;;2.88;;
45784;SDS011;31489;51.404;5.474;2023-04-01T04:10:05;5.05;;;3.20;;
45784;SDS011;31489;51.404;5.474;2023-04-01T04:12:31;3.63;;;3.33;;
45784;SDS011;31489;51.404;5.474;2023-04-01T04:14:57;3.78;;;3.47;;
45784;SDS011;31489;51.404;5.474;2023-04-01T04:17:22;3.78;;;3.45;;
45784;SDS011;31489;51.404;5.474;2023-04-01T04:19:48;5.10;;;4.18;;
45784;SDS011;31489;51.404;5.474;2023-04-01T04:22:14;4.65;;;4.20;;
45784;SDS011;31489;51.404;5.474;2023-04-01T04:24:39;5.13;;;4.63;;
45784;SDS011;31489;51.404;5.474;2023-04-01T04:27:05;5.10;;;4.60;;
45784;SDS011;31489;51.404;5.474;2023-04-01T04:29:31;6.35;;;4.93;;
45784;SDS011;31489;51.404;5.474;2023-04-01T04:31:56;5.35;;;4.85;;
45784;SDS011;31489;51.404;5.474;2023-04-01T04:34:22;5.55;;;5.05;;
45784;SDS011;31489;51.404;5.474;2023-04-01T04:36:48;7.30;;;5.43;;
45784;SDS011;31489;51.404;5.474;2023-04-01T04:39:13;6.80;;;5.57;;
45784;SDS011;31489;51.404;5.474;2023-04-01T04:41:40;5.65;;;5.15;;
45784;SDS011;31489;51.404;5.474;2023-04-01T04:44:05;6.35;;;5.28;;
45784;SDS011;31489;51.404;5.474;2023-04-01T04:46:32;6.95;;;5.40;;
45784;SDS011;31489;51.404;5.474;2023-04-01T04:48:57;6.30;;;5.70;;
45784;SDS011;31489;51.404;5.474;2023-04-01T04:51:23;5.72;;;5.22;;
45784;SDS011;31489;51.404;5.474;2023-04-01T04:53:49;6.20;;;5.60;;
45784;SDS011;31489;51.404;5.474;2023-04-01T04:56:18;6.78;;;5.78;;
45784;SDS011;31489;51.404;5.474;2023-04-01T04:58:46;5.93;;;5.35;;
45784;SDS011;31489;51.404;5.474;2023-04-01T05:01:13;5.38;;;4.88;;
45784;SDS011;31489;51.404;5.474;2023-04-01T05:03:40;5.80;;;5.30;;
45784;SDS011;31489;51.404;5.474;2023-04-01T05:06:06;5.78;;;5.05;;
45784;SDS011;31489;51.404;5.474;2023-04-01T05:08:32;6.00;;;5.32;;
45784;SDS011;31489;51.404;5.474;2023-04-01T05:10:59;6.22;;;5.63;;
45784;SDS011;31489;51.404;5.474;2023-04-01T05:13:26;7.15;;;5.30;;
45784;SDS011;31489;51.404;5.474;2023-04-01T05:15:52;7.47;;;5.03;;
45784;SDS011;31489;51.404;5.474;2023-04-01T05:18:17;5.18;;;4.70;;
45784;SDS011;31489;51.404;5.474;2023-04-01T05:20:50;4.65;;;4.25;;
45784;SDS011;31489;51.404;5.474;2023-04-01T05:23:18;4.40;;;4.00;;
45784;SDS011;31489;51.404;5.474;2023-04-01T05:25:46;4.35;;;3.95;;
45784;SDS011;31489;51.404;5.474;2023-04-01T05:28:12;5.60;;;3.90;;
45784;SDS011;31489;51.404;5.474;2023-04-01T05:30:42;4.60;;;4.20;;
45784;SDS011;31489;51.404;5.474;2023-04-01T05:33:08;4.40;;;4.00;;
45784;SDS011;31489;51.404;5.474;2023-04-01T05:35:35;4.30;;;3.90;;
45784;SDS011;31489;51.404;5.474;2023-04-01T05:38:02;3.75;;;3.38;;
45784;SDS011;31489;51.404;5.474;2023-04-01T05:40:28;3.80;;;3.50;;
45784;SDS011;31489;51.404;5.474;2023-04-01T05:42:54;4.05;;;3.30;;
45784;SDS011;31489;51.404;5.474;2023-04-01T05:45:20;3.70;;;3.40;;
45784;SDS011;31489;51.404;5.474;2023-04-01T05:47:46;3.45;;;3.15;;
45784;SDS011;31489;51.404;5.474;2023-04-01T05:50:12;3.63;;;3.33;;
45784;SDS011;31489;51.404;5.474;2023-04-01T05:52:38;3.38;;;3.08;;
45784;SDS011;31489;51.404;5.474;2023-04-01T05:55:04;3.58;;;3.28;;
45784;SDS011;31489;51.404;5.474;2023-04-01T05:57:30;3.45;;;3.15;;
45784;SDS011;31489;51.404;5.474;2023-04-01T05:59:56;2.85;;;2.65;;
45784;SDS011;31489;51.404;5.474;2023-04-01T06:02:22;2.88;;;2.67;;
45784;SDS011;31489;51.404;5.474;2023-04-01T06:04:48;2.75;;;2.55;;
45784;SDS011;31489;51.404;5.474;2023-04-01T06:07:18;2.55;;;2.33;;
45784;SDS011;31489;51.404;5.474;2023-04-01T06:09:44;3.45;;;2.60;;
45784;SDS011;31489;51.404;5.474;2023-04-01T06:20:56;2.60;;;2.30;;
45784;SDS011;31489;51.404;5.474;2023-04-01T06:23:30;3.40;;;2.47;;
45784;SDS011;31489;51.404;5.474;2023-04-01T06:31:37;2.70;;;2.42;;
45784;SDS011;31489;51.404;5.474;2023-04-01T06:34:34;2.88;;;2.50;;
45784;SDS011;31489;51.404;5.474;2023-04-01T06:42:49;2.60;;;2.40;;
45784;SDS011;31489;51.404;5.474;2023-04-01T06:48:19;3.65;;;2.40;;
45784;SDS011;31489;51.404;5.474;2023-04-01T06:56:08;2.55;;;2.35;;
45784;SDS011;31489;51.404;5.474;2023-04-01T06:58:37;2.70;;;2.47;;
45784;SDS011;31489;51.404;5.474;2023-04-01T07:01:08;2.78;;;2.58;;
45784;SDS011;31489;51.404;5.474;2023-04-01T07:03:41;2.78;;;2.53;;
45784;SDS011;31489;51.404;5.474;2023-04-01T07:09:19;3.15;;;2.85;;
45784;SDS011;31489;51.404;5.474;2023-04-01T07:11:47;3.88;;;3.50;;
45784;SDS011;31489;51.404;5.474;2023-04-01T07:16:54;3.83;;;3.53;;
45784;SDS011;31489;51.404;5.474;2023-04-01T07:19:42;4.65;;;4.25;;
45784;SDS011;31489;51.404;5.474;2023-04-01T07:24:41;5.43;;;4.93;;
45784;SDS011;31489;51.404;5.474;2023-04-01T07:27:10;5.88;;;5.28;;
45784;SDS011;31489;51.404;5.474;2023-04-01T07:29:37;6.80;;;6.13;;
45784;SDS011;31489;51.404;5.474;2023-04-01T07:32:14;8.45;;;7.50;;
45784;SDS011;31489;51.404;5.474;2023-04-01T07:37:38;8.65;;;7.75;;
45784;SDS011;31489;51.404;5.474;2023-04-01T07:40:35;10.02;;;8.27;;
45784;SDS011;31489;51.404;5.474;2023-04-01T07:51:08;10.40;;;9.30;;
45784;SDS011;31489;51.404;5.474;2023-04-01T07:56:30;11.63;;;9.60;;
45784;SDS011;31489;51.404;5.474;2023-04-01T08:10:28;14.05;;;12.52;;
45784;SDS011;31489;51.404;5.474;2023-04-01T08:13:05;18.45;;;12.60;;
45784;SDS011;31489;51.404;5.474;2023-04-01T08:15:49;19.13;;;13.05;;
45784;SDS011;31489;51.404;5.474;2023-04-01T08:21:01;15.23;;;12.60;;
45784;SDS011;31489;51.404;5.474;2023-04-01T08:23:31;16.75;;;13.05;;
45784;SDS011;31489;51.404;5.474;2023-04-01T08:28:37;18.20;;;12.05;;
45784;SDS011;31489;51.404;5.474;2023-04-01T08:31:18;18.00;;;12.63;;
45784;SDS011;31489;51.404;5.474;2023-04-01T08:33:50;16.55;;;11.95;;
45784;SDS011;31489;51.404;5.474;2023-04-01T08:36:29;15.57;;;11.20;;
45784;SDS011;31489;51.404;5.474;2023-04-01T08:44:30;16.55;;;11.32;;
45784;SDS011;31489;51.404;5.474;2023-04-01T08:47:17;17.20;;;11.23;;
45784;SDS011;31489;51.404;5.474;2023-04-01T08:50:08;14.27;;;10.90;;
45784;SDS011;31489;51.404;5.474;2023-04-01T08:55:51;15.68;;;11.15;;
45784;SDS011;31489;51.404;5.474;2023-04-01T09:01:21;15.63;;;10.85;;
45784;SDS011;31489;51.404;5.474;2023-04-01T09:04:18;14.13;;;9.75;;
45784;SDS011;31489;51.404;5.474;2023-04-01T09:15:28;11.80;;;8.48;;
45784;SDS011;31489;51.404;5.474;2023-04-01T09:37:35;13.60;;;7.40;;
45784;SDS011;31489;51.404;5.474;2023-04-01T10:00:39;5.45;;;4.90;;
45784;SDS011;31489;51.404;5.474;2023-04-01T10:18:01;10.38;;;6.65;;
45784;SDS011;31489;51.404;5.474;2023-04-01T10:20:39;10.18;;;7.13;;
45784;SDS011;31489;51.404;5.474;2023-04-01T10:26:17;10.80;;;7.40;;
45784;SDS011;31489;51.404;5.474;2023-04-01T10:41:37;6.05;;;5.45;;
45784;SDS011;31489;51.404;5.474;2023-04-01T10:44:19;8.05;;;5.68;;
45784;SDS011;31489;51.404;5.474;2023-04-01T10:58:02;6.30;;;4.93;;
45784;SDS011;31489;51.404;5.474;2023-04-01T11:12:03;5.10;;;4.55;;
45784;SDS011;31489;51.404;5.474;2023-04-01T11:17:15;4.13;;;3.70;;
45784;SDS011;31489;51.404;5.474;2023-04-01T11:28:57;9.18;;;4.45;;
45784;SDS011;31489;51.404;5.474;2023-04-01T11:31:35;5.18;;;3.85;;
45784;SDS011;31489;51.404;5.474;2023-04-01T11:42:01;4.22;;;3.83;;
45784;SDS011;31489;51.404;5.474;2023-04-01T11:47:54;6.22;;;5.05;;
45784;SDS011;31489;51.404;5.474;2023-04-01T12:03:54;5.70;;;3.95;;
45784;SDS011;31489;51.404;5.474;2023-04-01T12:15:02;3.42;;;3.13;;
45784;SDS011;31489;51.404;5.474;2023-04-01T12:17:52;3.53;;;3.22;;
45784;SDS011;31489;51.404;5.474;2023-04-01T12:20:44;4.90;;;3.03;;
45784;SDS011;31489;51.404;5.474;2023-04-01T12:41:08;3.00;;;2.70;;
45784;SDS011;31489;51.404;5.474;2023-04-01T12:51:37;3.58;;;2.67;;
45784;SDS011;31489;51.404;5.474;2023-04-01T13:16:14;3.90;;;2.88;;
45784;SDS011;31489;51.404;5.474;2023-04-01T13:18:56;3.53;;;2.72;;
45784;SDS011;31489;51.404;5.474;2023-04-01T13:30:49;4.20;;;3.80;;
45784;SDS011;31489;51.404;5.474;2023-04-01T13:35:17;4.00;;;3.60;;
45784;SDS011;31489;51.404;5.474;2023-04-01T13:38:20;4.90;;;4.32;;
45784;SDS011;31489;51.404;5.474;2023-04-01T13:43:59;4.38;;;3.28;;
45784;SDS011;31489;51.404;5.474;2023-04-01T14:03:21;5.90;;;4.47;;
45784;SDS011;31489;51.404;5.474;2023-04-01T14:06:04;7.20;;;4.80;;
45784;SDS011;31489;51.404;5.474;2023-04-01T14:08:38;5.30;;;4.43;;
45784;SDS011;31489;51.404;5.474;2023-04-01T14:11:28;6.43;;;4.53;;
45784;SDS011;31489;51.404;5.474;2023-04-01T14:17:34;6.50;;;4.32;;
45784;SDS011;31489;51.404;5.474;2023-04-01T14:23:41;6.38;;;4.43;;
45784;SDS011;31489;51.404;5.474;2023-04-01T14:26:35;6.70;;;4.63;;
45784;SDS011;31489;51.404;5.474;2023-04-01T14:29:37;5.95;;;3.85;;
45784;SDS011;31489;51.404;5.474;2023-04-01T14:37:35;4.65;;;3.88;;
45784;SDS011;31489;51.404;5.474;2023-04-01T14:48:52;4.15;;;2.92;;
45784;SDS011;31489;51.404;5.474;2023-04-01T14:51:29;5.93;;;3.13;;
45784;SDS011;31489;51.404;5.474;2023-04-01T14:56:48;6.80;;;2.80;;
45784;SDS011;31489;51.404;5.474;2023-04-01T15:07:17;3.97;;;3.10;;
45784;SDS011;31489;51.404;5.474;2023-04-01T15:24:10;3.42;;;3.08;;
45784;SDS011;31489;51.404;5.474;2023-04-01T15:29:49;3.78;;;2.70;;
45784;SDS011;31489;51.404;5.474;2023-04-01T15:32:47;3.97;;;2.58;;
45784;SDS011;31489;51.404;5.474;2023-04-01T15:35:25;3.00;;;2.70;;
45784;SDS011;31489;51.404;5.474;2023-04-01T15:38:05;3.00;;;2.60;;
45784;SDS011;31489;51.404;5.474;2023-04-01T15:43:11;3.03;;;2.70;;
45784;SDS011;31489;51.404;5.474;2023-04-01T16:17:21;2.88;;;2.63;;
45784;SDS011;31489;51.404;5.474;2023-04-01T16:33:24;7.22;;;2.78;;
45784;SDS011;31489;51.404;5.474;2023-04-01T16:35:59;2.85;;;2.65;;
45784;SDS011;31489;51.404;5.474;2023-04-01T16:41:20;3.10;;;2.80;;
45784;SDS011;31489;51.404;5.474;2023-04-01T16:44:25;6.60;;;3.25;;
45784;SDS011;31489;51.404;5.474;2023-04-01T16:46:44;3.67;;;3.38;;
45784;SDS011;31489;51.404;5.474;2023-04-01T16:49:24;3.65;;;3.10;;
45784;SDS011;31489;51.404;5.474;2023-04-01T16:54:39;4.07;;;3.38;;
45784;SDS011;31489;51.404;5.474;2023-04-01T16:57:31;4.88;;;3.53;;
45784;SDS011;31489;51.404;5.474;2023-04-01T17:06:19;4.30;;;3.47;;
45784;SDS011;31489;51.404;5.474;2023-04-01T17:11:19;3.70;;;2.97;;
45784;SDS011;31489;51.404;5.474;2023-04-01T17:20:00;5.13;;;4.63;;
45784;SDS011;31489;51.404;5.474;2023-04-01T17:22:33;7.25;;;5.57;;
45784;SDS011;31489;51.404;5.474;2023-04-01T17:28:05;7.40;;;5.60;;
45784;SDS011;31489;51.404;5.474;2023-04-01T17:35:54;7.22;;;5.30;;
45784;SDS011;31489;51.404;5.474;2023-04-01T17:43:52;5.50;;;5.00;;
45784;SDS011;31489;51.404;5.474;2023-04-01T17:54:59;6.68;;;5.38;;
45784;SDS011;31489;51.404;5.474;2023-04-01T18:19:46;7.20;;;6.13;;
45784;SDS011;31489;51.404;5.474;2023-04-01T18:25:28;9.60;;;7.47;;
45784;SDS011;31489;51.404;5.474;2023-04-01T18:30:56;7.55;;;6.35;;
45784;SDS011;31489;51.404;5.474;2023-04-01T18:39:18;5.95;;;4.95;;
45784;SDS011;31489;51.404;5.474;2023-04-01T18:41:59;5.40;;;4.90;;
45784;SDS011;31489;51.404;5.474;2023-04-01T18:44:46;5.50;;;5.00;;
45784;SDS011;31489;51.404;5.474;2023-04-01T18:52:59;5.43;;;4.93;;
45784;SDS011;31489;51.404;5.474;2023-04-01T18:55:40;5.25;;;4.75;;
45784;SDS011;31489;51.404;5.474;2023-04-01T19:04:15;4.10;;;3.70;;
45784;SDS011;31489;51.404;5.474;2023-04-01T19:06:33;4.47;;;4.07;;
45784;SDS011;31489;51.404;5.474;2023-04-01T19:09:14;3.75;;;3.45;;
45784;SDS011;31489;51.404;5.474;2023-04-01T19:22:43;4.68;;;3.70;;
45784;SDS011;31489;51.404;5.474;2023-04-01T19:31:07;3.88;;;3.58;;
45784;SDS011;31489;51.404;5.474;2023-04-01T19:33:41;4.40;;;4.00;;
45784;SDS011;31489;51.404;5.474;2023-04-01T19:36:32;3.97;;;3.67;;
45784;SDS011;31489;51.404;5.474;2023-04-01T19:43:10;4.57;;;4.18;;
45784;SDS011;31489;51.404;5.474;2023-04-01T19:48:04;5.35;;;4.85;;
45784;SDS011;31489;51.404;5.474;2023-04-01T19:55:50;5.50;;;5.03;;
45784;SDS011;31489;51.404;5.474;2023-04-01T19:58:54;6.75;;;5.20;;
45784;SDS011;31489;51.404;5.474;2023-04-01T20:01:41;6.07;;;5.47;;
45784;SDS011;31489;51.404;5.474;2023-04-01T20:04:22;6.45;;;5.85;;
45784;SDS011;31489;51.404;5.474;2023-04-01T20:12:48;5.90;;;5.40;;
45784;SDS011;31489;51.404;5.474;2023-04-01T20:17:46;6.38;;;5.82;;
45784;SDS011;31489;51.404;5.474;2023-04-01T20:20:21;6.40;;;5.88;;
45784;SDS011;31489;51.404;5.474;2023-04-01T20:23:01;6.35;;;5.85;;
45784;SDS011;31489;51.404;5.474;2023-04-01T20:25:43;6.38;;;5.78;;
45784;SDS011;31489;51.404;5.474;2023-04-01T20:44:09;5.90;;;5.40;;
45784;SDS011;31489;51.404;5.474;2023-04-01T20:46:45;6.47;;;5.63;;
45784;SDS011;31489;51.404;5.474;2023-04-01T20:57:24;5.45;;;5.05;;
45784;SDS011;31489;51.404;5.474;2023-04-01T21:03:15;5.13;;;4.72;;
45784;SDS011;31489;51.404;5.474;2023-04-01T21:06:10;5.63;;;5.07;;
45784;SDS011;31489;51.404;5.474;2023-04-01T21:27:29;4.93;;;4.53;;
45784;SDS011;31489;51.404;5.474;2023-04-01T21:30:30;5.03;;;4.63;;
45784;SDS011;31489;51.404;5.474;2023-04-01T21:38:52;5.00;;;4.60;;
45784;SDS011;31489;51.404;5.474;2023-04-01T21:47:01;5.85;;;4.57;;
45784;SDS011;31489;51.404;5.474;2023-04-01T21:55:20;5.43;;;4.90;;
45784;SDS011;31489;51.404;5.474;2023-04-01T21:58:07;6.00;;;5.50;;
45784;SDS011;31489;51.404;5.474;2023-04-01T22:00:42;5.90;;;5.40;;
45784;SDS011;31489;51.404;5.474;2023-04-01T22:05:59;5.97;;;5.47;;
45784;SDS011;31489;51.404;5.474;2023-04-01T22:08:40;5.72;;;5.28;;
45784;SDS011;31489;51.404;5.474;2023-04-01T22:11:17;6.10;;;5.50;;
45784;SDS011;31489;51.404;5.474;2023-04-01T22:14:05;5.80;;;5.30;;
45784;SDS011;31489;51.404;5.474;2023-04-01T22:19:20;5.90;;;5.40;;
45784;SDS011;31489;51.404;5.474;2023-04-01T22:22:06;6.05;;;5.55;;
45784;SDS011;31489;51.404;5.474;2023-04-01T22:29:53;5.70;;;5.20;;
45784;SDS011;31489;51.404;5.474;2023-04-01T22:32:39;5.53;;;5.03;;
45784;SDS011;31489;51.404;5.474;2023-04-01T22:40:46;6.03;;;5.07;;
45784;SDS011;31489;51.404;5.474;2023-04-01T22:48:46;6.05;;;5.55;;
45784;SDS011;31489;51.404;5.474;2023-04-01T22:54:11;5.03;;;4.63;;
45784;SDS011;31489;51.404;5.474;2023-04-01T22:59:52;6.85;;;6.25;;
45784;SDS011;31489;51.404;5.474;2023-04-01T23:02:42;8.45;;;6.72;;
45784;SDS011;31489;51.404;5.474;2023-04-01T23:05:12;7.80;;;7.03;;
45784;SDS011;31489;51.404;5.474;2023-04-01T23:10:54;7.53;;;6.85;;
45784;SDS011;31489;51.404;5.474;2023-04-01T23:13:28;7.60;;;6.90;;
45784;SDS011;31489;51.404;5.474;2023-04-01T23:15:57;7.47;;;6.75;;
45784;SDS011;31489;51.404;5.474;2023-04-01T23:18:24;7.00;;;6.40;;
45784;SDS011;31489;51.404;5.474;2023-04-01T23:24:01;6.75;;;6.15;;
45784;SDS011;31489;51.404;5.474;2023-04-01T23:26:56;5.82;;;5.32;;
45784;SDS011;31489;51.404;5.474;2023-04-01T23:29:29;5.88;;;5.40;;
45784;SDS011;31489;51.404;5.474;2023-04-01T23:32:01;6.38;;;5.88;;
45784;SDS011;31489;51.404;5.474;2023-04-01T23:34:34;5.97;;;5.50;;
45784;SDS011;31489;51.404;5.474;2023-04-01T23:37:05;5.85;;;5.35;;
45784;SDS011;31489;51.404;5.474;2023-04-01T23:39:36;5.90;;;5.40;;
45784;SDS011;31489;51.404;5.474;2023-04-01T23:44:51;5.53;;;4.78;;
45784;SDS011;31489;51.404;5.474;2023-04-01T23:47:27;6.00;;;5.40;;
45784;SDS011;31489;51.404;5.474;2023-04-01T23:50:11;5.22;;;4.82;;
45784;SDS011;31489;51.404;5.474;2023-04-01T23:52:48;5.10;;;4.70;;
45784;SDS011;31489;51.404;5.474;2023-04-01T23:55:22;5.47;;;4.97;;
